sensor_id;sensor_type;location;lat;lon;timestamp;P1;durP1;ratioP1;P2;durP2;ratioP2
4553;SDS011;2289;48.316;15.174;2023-08-20T00:01:38;14.67;;;13.27;;
4553;SDS011;2289;48.316;15.174;2023-08-20T00:04:08;14.27;;;12.97;;
4553;SDS011;2289;48.316;15.174;2023-08-20T00:06:40;14.27;;;12.10;;
4553;SDS011;2289;48.316;15.174;2023-08-20T00:09:11;14.90;;;13.53;;
4553;SDS011;2289;48.316;15.174;2023-08-20T00:11:39;13.60;;;12.00;;
4553;SDS011;2289;48.316;15.174;2023-08-20T00:14:14;14.30;;;12.63;;
4553;SDS011;2289;48.316;15.174;2023-08-20T00:16:45;15.43;;;13.83;;
4553;SDS011;2289;48.316;15.174;2023-08-20T00:19:15;13.97;;;12.50;;
4553;SDS011;2289;48.316;15.174;2023-08-20T00:21:46;15.50;;;13.90;;
4553;SDS011;2289;48.316;15.174;2023-08-20T00:24:15;14.30;;;12.93;;
4553;SDS011;2289;48.316;15.174;2023-08-20T00:26:45;13.97;;;12.67;;
4553;SDS011;2289;48.316;15.174;2023-08-20T00:29:14;15.60;;;14.03;;
4553;SDS011;2289;48.316;15.174;2023-08-20T00:31:43;20.67;;;14.10;;
4553;SDS011;2289;48.316;15.174;2023-08-20T00:34:12;16.00;;;14.50;;
4553;SDS011;2289;48.316;15.174;2023-08-20T00:36:41;17.73;;;13.37;;
4553;SDS011;2289;48.316;15.174;2023-08-20T00:39:11;16.33;;;13.50;;
4553;SDS011;2289;48.316;15.174;2023-08-20T00:41:42;15.00;;;13.50;;
4553;SDS011;2289;48.316;15.174;2023-08-20T00:44:11;15.27;;;13.60;;
4553;SDS011;2289;48.316;15.174;2023-08-20T00:46:42;13.40;;;12.10;;
4553;SDS011;2289;48.316;15.174;2023-08-20T00:49:11;16.53;;;13.70;;
4553;SDS011;2289;48.316;15.174;2023-08-20T00:51:40;15.33;;;13.73;;
4553;SDS011;2289;48.316;15.174;2023-08-20T00:54:09;15.90;;;13.47;;
4553;SDS011;2289;48.316;15.174;2023-08-20T00:56:40;15.13;;;13.50;;
4553;SDS011;2289;48.316;15.174;2023-08-20T00:59:09;15.30;;;13.80;;
4553;SDS011;2289;48.316;15.174;2023-08-20T01:01:41;18.53;;;14.70;;
4553;SDS011;2289;48.316;15.174;2023-08-20T01:04:10;22.13;;;15.27;;
4553;SDS011;2289;48.316;15.174;2023-08-20T01:06:43;19.80;;;15.33;;
4553;SDS011;2289;48.316;15.174;2023-08-20T01:09:17;19.20;;;14.70;;
4553;SDS011;2289;48.316;15.174;2023-08-20T01:11:55;15.13;;;13.63;;
4553;SDS011;2289;48.316;15.174;2023-08-20T01:14:26;17.57;;;15.87;;
4553;SDS011;2289;48.316;15.174;2023-08-20T01:16:55;15.73;;;14.00;;
4553;SDS011;2289;48.316;15.174;2023-08-20T01:19:25;16.07;;;14.47;;
4553;SDS011;2289;48.316;15.174;2023-08-20T01:22:05;14.90;;;13.47;;
4553;SDS011;2289;48.316;15.174;2023-08-20T01:24:44;18.33;;;14.17;;
4553;SDS011;2289;48.316;15.174;2023-08-20T01:27:26;19.63;;;15.00;;
4553;SDS011;2289;48.316;15.174;2023-08-20T01:30:01;23.40;;;16.17;;
4553;SDS011;2289;48.316;15.174;2023-08-20T01:32:31;15.60;;;14.07;;
4553;SDS011;2289;48.316;15.174;2023-08-20T01:35:01;19.67;;;13.60;;
4553;SDS011;2289;48.316;15.174;2023-08-20T01:37:30;17.40;;;14.10;;
4553;SDS011;2289;48.316;15.174;2023-08-20T01:39:59;15.20;;;13.73;;
4553;SDS011;2289;48.316;15.174;2023-08-20T01:42:28;13.70;;;12.27;;
4553;SDS011;2289;48.316;15.174;2023-08-20T01:44:59;15.30;;;13.37;;
4553;SDS011;2289;48.316;15.174;2023-08-20T01:47:29;15.27;;;13.67;;
4553;SDS011;2289;48.316;15.174;2023-08-20T01:49:58;15.87;;;14.27;;
4553;SDS011;2289;48.316;15.174;2023-08-20T01:52:31;15.20;;;13.60;;
4553;SDS011;2289;48.316;15.174;2023-08-20T01:54:59;16.30;;;13.90;;
4553;SDS011;2289;48.316;15.174;2023-08-20T01:57:28;14.70;;;13.13;;
4553;SDS011;2289;48.316;15.174;2023-08-20T01:59:57;16.90;;;13.67;;
4553;SDS011;2289;48.316;15.174;2023-08-20T02:02:28;15.20;;;13.70;;
4553;SDS011;2289;48.316;15.174;2023-08-20T02:04:57;14.53;;;13.03;;
4553;SDS011;2289;48.316;15.174;2023-08-20T02:07:26;14.17;;;12.47;;
4553;SDS011;2289;48.316;15.174;2023-08-20T02:09:55;14.10;;;12.67;;
4553;SDS011;2289;48.316;15.174;2023-08-20T02:12:25;15.13;;;13.50;;
4553;SDS011;2289;48.316;15.174;2023-08-20T02:14:54;13.30;;;12.00;;
4553;SDS011;2289;48.316;15.174;2023-08-20T02:17:24;15.60;;;12.80;;
4553;SDS011;2289;48.316;15.174;2023-08-20T02:19:54;15.60;;;13.30;;
4553;SDS011;2289;48.316;15.174;2023-08-20T02:22:23;21.70;;;13.80;;
4553;SDS011;2289;48.316;15.174;2023-08-20T02:24:53;17.03;;;13.57;;
4553;SDS011;2289;48.316;15.174;2023-08-20T02:27:21;15.33;;;13.83;;
4553;SDS011;2289;48.316;15.174;2023-08-20T02:29:51;14.53;;;13.23;;
4553;SDS011;2289;48.316;15.174;2023-08-20T02:32:20;13.87;;;12.57;;
4553;SDS011;2289;48.316;15.174;2023-08-20T02:35:09;16.17;;;14.43;;
4553;SDS011;2289;48.316;15.174;2023-08-20T02:37:40;15.10;;;12.33;;
4553;SDS011;2289;48.316;15.174;2023-08-20T02:40:10;15.03;;;12.73;;
4553;SDS011;2289;48.316;15.174;2023-08-20T02:42:41;14.37;;;12.90;;
4553;SDS011;2289;48.316;15.174;2023-08-20T02:45:10;14.23;;;12.90;;
4553;SDS011;2289;48.316;15.174;2023-08-20T02:47:39;15.27;;;13.77;;
4553;SDS011;2289;48.316;15.174;2023-08-20T02:50:12;14.73;;;13.30;;
4553;SDS011;2289;48.316;15.174;2023-08-20T02:52:41;13.87;;;12.57;;
4553;SDS011;2289;48.316;15.174;2023-08-20T02:55:11;15.87;;;14.33;;
4553;SDS011;2289;48.316;15.174;2023-08-20T02:57:39;16.07;;;13.40;;
4553;SDS011;2289;48.316;15.174;2023-08-20T03:00:09;15.80;;;14.30;;
4553;SDS011;2289;48.316;15.174;2023-08-20T03:02:41;14.27;;;12.90;;
4553;SDS011;2289;48.316;15.174;2023-08-20T03:05:10;14.73;;;12.83;;
4553;SDS011;2289;48.316;15.174;2023-08-20T03:07:40;14.70;;;11.53;;
4553;SDS011;2289;48.316;15.174;2023-08-20T03:10:09;13.20;;;12.00;;
4553;SDS011;2289;48.316;15.174;2023-08-20T03:12:38;14.00;;;12.60;;
4553;SDS011;2289;48.316;15.174;2023-08-20T03:15:08;15.87;;;14.23;;
4553;SDS011;2289;48.316;15.174;2023-08-20T03:17:37;17.03;;;13.37;;
4553;SDS011;2289;48.316;15.174;2023-08-20T03:20:07;14.90;;;13.50;;
4553;SDS011;2289;48.316;15.174;2023-08-20T03:22:37;15.13;;;13.70;;
4553;SDS011;2289;48.316;15.174;2023-08-20T03:25:08;16.33;;;13.60;;
4553;SDS011;2289;48.316;15.174;2023-08-20T03:27:37;17.90;;;14.67;;
4553;SDS011;2289;48.316;15.174;2023-08-20T03:30:07;13.90;;;12.60;;
4553;SDS011;2289;48.316;15.174;2023-08-20T03:32:36;19.33;;;12.97;;
4553;SDS011;2289;48.316;15.174;2023-08-20T03:35:06;14.00;;;12.57;;
4553;SDS011;2289;48.316;15.174;2023-08-20T03:37:35;15.57;;;13.97;;
4553;SDS011;2289;48.316;15.174;2023-08-20T03:40:04;14.40;;;12.90;;
4553;SDS011;2289;48.316;15.174;2023-08-20T03:42:36;14.77;;;13.23;;
4553;SDS011;2289;48.316;15.174;2023-08-20T03:45:05;16.70;;;13.73;;
4553;SDS011;2289;48.316;15.174;2023-08-20T03:47:35;13.60;;;12.30;;
4553;SDS011;2289;48.316;15.174;2023-08-20T03:50:05;15.30;;;13.80;;
4553;SDS011;2289;48.316;15.174;2023-08-20T03:52:35;14.93;;;12.80;;
4553;SDS011;2289;48.316;15.174;2023-08-20T03:55:04;15.97;;;14.37;;
4553;SDS011;2289;48.316;15.174;2023-08-20T03:57:34;16.70;;;14.17;;
4553;SDS011;2289;48.316;15.174;2023-08-20T04:03:06;13.60;;;12.20;;
4553;SDS011;2289;48.316;15.174;2023-08-20T04:05:35;14.73;;;13.17;;
4553;SDS011;2289;48.316;15.174;2023-08-20T04:08:04;18.23;;;12.97;;
4553;SDS011;2289;48.316;15.174;2023-08-20T04:10:34;14.60;;;12.77;;
4553;SDS011;2289;48.316;15.174;2023-08-20T04:13:05;13.77;;;12.37;;
4553;SDS011;2289;48.316;15.174;2023-08-20T04:15:34;13.93;;;11.30;;
4553;SDS011;2289;48.316;15.174;2023-08-20T04:18:03;13.37;;;12.00;;
4553;SDS011;2289;48.316;15.174;2023-08-20T04:20:32;12.73;;;11.53;;
4553;SDS011;2289;48.316;15.174;2023-08-20T04:23:02;13.73;;;12.40;;
4553;SDS011;2289;48.316;15.174;2023-08-20T04:25:30;13.63;;;11.73;;
4553;SDS011;2289;48.316;15.174;2023-08-20T04:27:59;12.10;;;10.70;;
4553;SDS011;2289;48.316;15.174;2023-08-20T04:30:30;13.40;;;11.57;;
4553;SDS011;2289;48.316;15.174;2023-08-20T04:33:00;15.90;;;11.87;;
4553;SDS011;2289;48.316;15.174;2023-08-20T04:35:29;13.50;;;12.20;;
4553;SDS011;2289;48.316;15.174;2023-08-20T04:37:58;13.33;;;12.03;;
4553;SDS011;2289;48.316;15.174;2023-08-20T04:40:27;13.13;;;11.77;;
4553;SDS011;2289;48.316;15.174;2023-08-20T04:42:56;13.53;;;12.20;;
4553;SDS011;2289;48.316;15.174;2023-08-20T04:45:25;14.73;;;12.53;;
4553;SDS011;2289;48.316;15.174;2023-08-20T04:47:56;13.63;;;11.83;;
4553;SDS011;2289;48.316;15.174;2023-08-20T04:50:25;13.73;;;12.33;;
4553;SDS011;2289;48.316;15.174;2023-08-20T04:52:54;13.30;;;12.00;;
4553;SDS011;2289;48.316;15.174;2023-08-20T04:55:23;15.90;;;12.57;;
4553;SDS011;2289;48.316;15.174;2023-08-20T04:57:51;13.57;;;11.93;;
4553;SDS011;2289;48.316;15.174;2023-08-20T05:00:20;15.20;;;12.97;;
4553;SDS011;2289;48.316;15.174;2023-08-20T05:02:49;12.93;;;11.83;;
4553;SDS011;2289;48.316;15.174;2023-08-20T05:05:19;13.20;;;11.90;;
4553;SDS011;2289;48.316;15.174;2023-08-20T05:07:48;12.33;;;11.00;;
4553;SDS011;2289;48.316;15.174;2023-08-20T05:10:17;14.23;;;12.27;;
4553;SDS011;2289;48.316;15.174;2023-08-20T05:12:46;14.03;;;12.63;;
4553;SDS011;2289;48.316;15.174;2023-08-20T05:15:15;14.10;;;12.80;;
4553;SDS011;2289;48.316;15.174;2023-08-20T05:17:44;14.33;;;12.90;;
4553;SDS011;2289;48.316;15.174;2023-08-20T05:20:12;14.83;;;13.40;;
4553;SDS011;2289;48.316;15.174;2023-08-20T05:22:43;14.47;;;13.10;;
4553;SDS011;2289;48.316;15.174;2023-08-20T05:25:12;14.23;;;12.20;;
4553;SDS011;2289;48.316;15.174;2023-08-20T05:27:41;11.73;;;10.63;;
4553;SDS011;2289;48.316;15.174;2023-08-20T05:30:11;12.60;;;11.50;;
4553;SDS011;2289;48.316;15.174;2023-08-20T05:32:40;14.17;;;12.67;;
4553;SDS011;2289;48.316;15.174;2023-08-20T05:35:09;15.33;;;13.43;;
4553;SDS011;2289;48.316;15.174;2023-08-20T05:37:38;14.70;;;13.40;;
4553;SDS011;2289;48.316;15.174;2023-08-20T05:40:08;17.50;;;13.90;;
4553;SDS011;2289;48.316;15.174;2023-08-20T05:42:38;14.97;;;12.07;;
4553;SDS011;2289;48.316;15.174;2023-08-20T05:45:07;12.50;;;11.37;;
4553;SDS011;2289;48.316;15.174;2023-08-20T05:47:39;13.20;;;11.67;;
4553;SDS011;2289;48.316;15.174;2023-08-20T05:50:08;13.90;;;12.60;;
4553;SDS011;2289;48.316;15.174;2023-08-20T05:52:37;11.87;;;10.73;;
4553;SDS011;2289;48.316;15.174;2023-08-20T05:55:08;12.53;;;11.40;;
4553;SDS011;2289;48.316;15.174;2023-08-20T05:57:38;13.07;;;11.70;;
4553;SDS011;2289;48.316;15.174;2023-08-20T06:00:08;13.20;;;11.77;;
4553;SDS011;2289;48.316;15.174;2023-08-20T06:02:37;11.70;;;10.70;;
4553;SDS011;2289;48.316;15.174;2023-08-20T06:05:06;13.47;;;12.07;;
4553;SDS011;2289;48.316;15.174;2023-08-20T06:07:36;12.30;;;11.20;;
4553;SDS011;2289;48.316;15.174;2023-08-20T06:10:05;14.27;;;12.87;;
4553;SDS011;2289;48.316;15.174;2023-08-20T06:12:36;11.70;;;10.60;;
4553;SDS011;2289;48.316;15.174;2023-08-20T06:15:05;11.07;;;10.07;;
4553;SDS011;2289;48.316;15.174;2023-08-20T06:17:36;13.70;;;11.83;;
4553;SDS011;2289;48.316;15.174;2023-08-20T06:20:05;13.70;;;12.10;;
4553;SDS011;2289;48.316;15.174;2023-08-20T06:22:35;17.63;;;12.27;;
4553;SDS011;2289;48.316;15.174;2023-08-20T06:25:08;14.87;;;11.77;;
4553;SDS011;2289;48.316;15.174;2023-08-20T06:27:36;13.40;;;12.10;;
4553;SDS011;2289;48.316;15.174;2023-08-20T06:30:05;14.40;;;11.87;;
4553;SDS011;2289;48.316;15.174;2023-08-20T06:32:35;13.73;;;10.53;;
4553;SDS011;2289;48.316;15.174;2023-08-20T06:35:04;13.97;;;12.67;;
4553;SDS011;2289;48.316;15.174;2023-08-20T06:37:33;12.13;;;11.03;;
4553;SDS011;2289;48.316;15.174;2023-08-20T06:40:02;13.10;;;11.93;;
4553;SDS011;2289;48.316;15.174;2023-08-20T06:42:32;14.27;;;12.90;;
4553;SDS011;2289;48.316;15.174;2023-08-20T06:45:04;13.13;;;11.83;;
4553;SDS011;2289;48.316;15.174;2023-08-20T06:47:34;12.93;;;11.73;;
4553;SDS011;2289;48.316;15.174;2023-08-20T06:50:07;14.37;;;12.87;;
4553;SDS011;2289;48.316;15.174;2023-08-20T06:52:36;13.97;;;12.50;;
4553;SDS011;2289;48.316;15.174;2023-08-20T06:55:05;13.80;;;12.50;;
4553;SDS011;2289;48.316;15.174;2023-08-20T06:57:36;14.43;;;13.13;;
4553;SDS011;2289;48.316;15.174;2023-08-20T07:00:06;14.87;;;13.57;;
4553;SDS011;2289;48.316;15.174;2023-08-20T07:02:35;13.93;;;12.47;;
4553;SDS011;2289;48.316;15.174;2023-08-20T07:05:04;14.90;;;13.50;;
4553;SDS011;2289;48.316;15.174;2023-08-20T07:07:36;17.03;;;13.53;;
4553;SDS011;2289;48.316;15.174;2023-08-20T07:10:05;14.90;;;13.43;;
4553;SDS011;2289;48.316;15.174;2023-08-20T07:12:35;13.97;;;12.60;;
4553;SDS011;2289;48.316;15.174;2023-08-20T07:15:06;13.93;;;12.53;;
4553;SDS011;2289;48.316;15.174;2023-08-20T07:17:35;14.47;;;12.77;;
4553;SDS011;2289;48.316;15.174;2023-08-20T07:20:06;14.53;;;13.23;;
4553;SDS011;2289;48.316;15.174;2023-08-20T07:22:35;14.80;;;13.43;;
4553;SDS011;2289;48.316;15.174;2023-08-20T07:25:04;17.10;;;13.87;;
4553;SDS011;2289;48.316;15.174;2023-08-20T07:27:33;13.93;;;12.77;;
4553;SDS011;2289;48.316;15.174;2023-08-20T07:30:04;13.97;;;12.57;;
4553;SDS011;2289;48.316;15.174;2023-08-20T07:32:34;13.70;;;12.43;;
4553;SDS011;2289;48.316;15.174;2023-08-20T07:35:03;14.37;;;13.07;;
4553;SDS011;2289;48.316;15.174;2023-08-20T07:37:37;12.87;;;11.77;;
4553;SDS011;2289;48.316;15.174;2023-08-20T07:40:06;13.80;;;12.53;;
4553;SDS011;2289;48.316;15.174;2023-08-20T07:43:29;13.37;;;12.17;;
4553;SDS011;2289;48.316;15.174;2023-08-20T07:54:54;13.23;;;11.97;;
4553;SDS011;2289;48.316;15.174;2023-08-20T07:58:16;15.30;;;13.57;;
4553;SDS011;2289;48.316;15.174;2023-08-20T08:00:45;14.33;;;13.10;;
4553;SDS011;2289;48.316;15.174;2023-08-20T08:03:15;13.30;;;12.00;;
4553;SDS011;2289;48.316;15.174;2023-08-20T08:05:46;14.00;;;12.60;;
4553;SDS011;2289;48.316;15.174;2023-08-20T08:08:15;13.97;;;12.67;;
4553;SDS011;2289;48.316;15.174;2023-08-20T08:10:46;13.37;;;11.73;;
4553;SDS011;2289;48.316;15.174;2023-08-20T08:13:17;14.50;;;13.00;;
4553;SDS011;2289;48.316;15.174;2023-08-20T08:28:14;11.80;;;10.70;;
4553;SDS011;2289;48.316;15.174;2023-08-20T08:43:14;11.30;;;10.30;;
4553;SDS011;2289;48.316;15.174;2023-08-20T08:45:45;10.37;;;9.37;;
4553;SDS011;2289;48.316;15.174;2023-08-20T08:48:18;10.30;;;9.40;;
4553;SDS011;2289;48.316;15.174;2023-08-20T08:57:00;9.53;;;8.73;;
4553;SDS011;2289;48.316;15.174;2023-08-20T09:02:38;9.33;;;8.60;;
4553;SDS011;2289;48.316;15.174;2023-08-20T09:08:18;15.73;;;9.80;;
4553;SDS011;2289;48.316;15.174;2023-08-20T09:23:16;8.30;;;7.50;;
4553;SDS011;2289;48.316;15.174;2023-08-20T09:25:45;12.07;;;8.20;;
4553;SDS011;2289;48.316;15.174;2023-08-20T09:28:14;8.73;;;7.97;;
4553;SDS011;2289;48.316;15.174;2023-08-20T09:30:54;9.00;;;7.97;;
4553;SDS011;2289;48.316;15.174;2023-08-20T09:33:23;8.53;;;7.73;;
4553;SDS011;2289;48.316;15.174;2023-08-20T09:35:55;10.77;;;7.80;;
4553;SDS011;2289;48.316;15.174;2023-08-20T09:38:25;12.40;;;8.10;;
4553;SDS011;2289;48.316;15.174;2023-08-20T09:40:54;8.67;;;7.70;;
4553;SDS011;2289;48.316;15.174;2023-08-20T09:43:25;8.57;;;7.77;;
4553;SDS011;2289;48.316;15.174;2023-08-20T09:46:01;10.90;;;8.90;;
4553;SDS011;2289;48.316;15.174;2023-08-20T09:48:32;8.30;;;7.60;;
4553;SDS011;2289;48.316;15.174;2023-08-20T09:51:04;8.70;;;8.00;;
4553;SDS011;2289;48.316;15.174;2023-08-20T09:53:37;9.30;;;8.60;;
4553;SDS011;2289;48.316;15.174;2023-08-20T09:56:09;10.83;;;8.50;;
4553;SDS011;2289;48.316;15.174;2023-08-20T09:58:38;8.83;;;8.23;;
4553;SDS011;2289;48.316;15.174;2023-08-20T10:01:13;8.20;;;7.50;;
4553;SDS011;2289;48.316;15.174;2023-08-20T10:03:42;10.10;;;9.03;;
4553;SDS011;2289;48.316;15.174;2023-08-20T10:06:12;9.10;;;8.03;;
4553;SDS011;2289;48.316;15.174;2023-08-20T10:08:45;9.57;;;8.77;;
4553;SDS011;2289;48.316;15.174;2023-08-20T10:11:16;9.40;;;8.47;;
4553;SDS011;2289;48.316;15.174;2023-08-20T10:13:46;9.17;;;8.47;;
4553;SDS011;2289;48.316;15.174;2023-08-20T10:16:17;9.97;;;9.13;;
4553;SDS011;2289;48.316;15.174;2023-08-20T10:18:49;9.77;;;9.07;;
4553;SDS011;2289;48.316;15.174;2023-08-20T10:21:23;9.93;;;9.13;;
4553;SDS011;2289;48.316;15.174;2023-08-20T10:23:54;10.40;;;9.50;;
4553;SDS011;2289;48.316;15.174;2023-08-20T10:26:23;13.57;;;8.10;;
4553;SDS011;2289;48.316;15.174;2023-08-20T10:28:52;8.53;;;7.83;;
4553;SDS011;2289;48.316;15.174;2023-08-20T10:31:59;12.73;;;8.13;;
4553;SDS011;2289;48.316;15.174;2023-08-20T10:34:32;8.93;;;8.17;;
4553;SDS011;2289;48.316;15.174;2023-08-20T10:37:02;9.20;;;7.67;;
4553;SDS011;2289;48.316;15.174;2023-08-20T10:39:33;7.63;;;7.03;;
4553;SDS011;2289;48.316;15.174;2023-08-20T10:42:09;9.73;;;8.50;;
4553;SDS011;2289;48.316;15.174;2023-08-20T10:44:56;8.87;;;8.27;;
4553;SDS011;2289;48.316;15.174;2023-08-20T10:47:34;9.90;;;9.00;;
4553;SDS011;2289;48.316;15.174;2023-08-20T10:50:05;9.70;;;8.83;;
4553;SDS011;2289;48.316;15.174;2023-08-20T10:52:39;9.43;;;8.67;;
4553;SDS011;2289;48.316;15.174;2023-08-20T10:55:10;10.23;;;9.30;;
4553;SDS011;2289;48.316;15.174;2023-08-20T10:57:39;10.43;;;9.43;;
4553;SDS011;2289;48.316;15.174;2023-08-20T11:00:09;8.33;;;7.73;;
4553;SDS011;2289;48.316;15.174;2023-08-20T11:02:40;9.60;;;8.70;;
4553;SDS011;2289;48.316;15.174;2023-08-20T11:05:15;10.40;;;9.40;;
4553;SDS011;2289;48.316;15.174;2023-08-20T11:08:04;8.73;;;7.80;;
4553;SDS011;2289;48.316;15.174;2023-08-20T11:10:55;10.17;;;9.37;;
4553;SDS011;2289;48.316;15.174;2023-08-20T11:13:43;9.63;;;8.77;;
4553;SDS011;2289;48.316;15.174;2023-08-20T11:16:31;9.97;;;8.63;;
4553;SDS011;2289;48.316;15.174;2023-08-20T11:19:20;10.87;;;9.87;;
4553;SDS011;2289;48.316;15.174;2023-08-20T11:22:08;9.43;;;8.73;;
4553;SDS011;2289;48.316;15.174;2023-08-20T11:24:56;9.73;;;8.83;;
4553;SDS011;2289;48.316;15.174;2023-08-20T11:27:45;11.03;;;8.90;;
4553;SDS011;2289;48.316;15.174;2023-08-20T11:30:34;9.60;;;8.70;;
4553;SDS011;2289;48.316;15.174;2023-08-20T11:33:21;10.50;;;9.50;;
4553;SDS011;2289;48.316;15.174;2023-08-20T11:35:51;9.30;;;8.47;;
4553;SDS011;2289;48.316;15.174;2023-08-20T11:38:22;10.17;;;8.93;;
4553;SDS011;2289;48.316;15.174;2023-08-20T11:40:52;10.73;;;8.50;;
4553;SDS011;2289;48.316;15.174;2023-08-20T11:43:23;8.40;;;7.70;;
4553;SDS011;2289;48.316;15.174;2023-08-20T11:45:52;8.97;;;8.17;;
4553;SDS011;2289;48.316;15.174;2023-08-20T11:48:22;9.50;;;8.70;;
4553;SDS011;2289;48.316;15.174;2023-08-20T11:50:51;9.50;;;8.53;;
4553;SDS011;2289;48.316;15.174;2023-08-20T11:53:21;15.23;;;8.20;;
4553;SDS011;2289;48.316;15.174;2023-08-20T11:55:50;10.20;;;9.40;;
4553;SDS011;2289;48.316;15.174;2023-08-20T11:58:20;10.60;;;9.67;;
4553;SDS011;2289;48.316;15.174;2023-08-20T12:00:51;10.40;;;9.23;;
4553;SDS011;2289;48.316;15.174;2023-08-20T12:03:20;9.67;;;8.80;;
4553;SDS011;2289;48.316;15.174;2023-08-20T12:05:49;8.97;;;8.17;;
4553;SDS011;2289;48.316;15.174;2023-08-20T12:08:19;9.23;;;8.43;;
4553;SDS011;2289;48.316;15.174;2023-08-20T12:10:49;9.63;;;8.73;;
4553;SDS011;2289;48.316;15.174;2023-08-20T12:13:19;9.50;;;8.70;;
4553;SDS011;2289;48.316;15.174;2023-08-20T12:15:48;8.73;;;8.10;;
4553;SDS011;2289;48.316;15.174;2023-08-20T12:18:19;9.30;;;8.60;;
4553;SDS011;2289;48.316;15.174;2023-08-20T12:20:48;9.30;;;8.60;;
4553;SDS011;2289;48.316;15.174;2023-08-20T12:23:17;9.53;;;8.73;;
4553;SDS011;2289;48.316;15.174;2023-08-20T12:25:49;10.23;;;9.33;;
4553;SDS011;2289;48.316;15.174;2023-08-20T12:28:18;9.80;;;9.00;;
4553;SDS011;2289;48.316;15.174;2023-08-20T12:30:47;15.83;;;8.33;;
4553;SDS011;2289;48.316;15.174;2023-08-20T12:33:16;9.70;;;8.80;;
4553;SDS011;2289;48.316;15.174;2023-08-20T12:35:48;11.93;;;8.50;;
4553;SDS011;2289;48.316;15.174;2023-08-20T12:38:20;10.37;;;9.37;;
4553;SDS011;2289;48.316;15.174;2023-08-20T12:40:49;10.60;;;9.60;;
4553;SDS011;2289;48.316;15.174;2023-08-20T12:43:18;9.77;;;8.93;;
4553;SDS011;2289;48.316;15.174;2023-08-20T12:45:48;9.23;;;8.23;;
4553;SDS011;2289;48.316;15.174;2023-08-20T12:48:22;9.40;;;8.60;;
4553;SDS011;2289;48.316;15.174;2023-08-20T12:50:54;8.97;;;8.17;;
4553;SDS011;2289;48.316;15.174;2023-08-20T12:53:26;8.73;;;7.97;;
4553;SDS011;2289;48.316;15.174;2023-08-20T12:55:56;11.00;;;10.00;;
4553;SDS011;2289;48.316;15.174;2023-08-20T12:58:25;11.10;;;10.20;;
4553;SDS011;2289;48.316;15.174;2023-08-20T13:00:54;9.60;;;8.60;;
4553;SDS011;2289;48.316;15.174;2023-08-20T13:03:26;9.97;;;9.17;;
4553;SDS011;2289;48.316;15.174;2023-08-20T13:05:56;10.07;;;8.43;;
4553;SDS011;2289;48.316;15.174;2023-08-20T13:08:26;10.50;;;8.87;;
4553;SDS011;2289;48.316;15.174;2023-08-20T13:10:56;13.93;;;9.60;;
4553;SDS011;2289;48.316;15.174;2023-08-20T13:13:28;9.03;;;8.23;;
4553;SDS011;2289;48.316;15.174;2023-08-20T13:16:00;9.30;;;8.47;;
4553;SDS011;2289;48.316;15.174;2023-08-20T13:18:32;8.10;;;7.40;;
4553;SDS011;2289;48.316;15.174;2023-08-20T13:21:04;8.90;;;8.10;;
4553;SDS011;2289;48.316;15.174;2023-08-20T13:23:34;9.20;;;8.50;;
4553;SDS011;2289;48.316;15.174;2023-08-20T13:26:03;8.80;;;8.20;;
4553;SDS011;2289;48.316;15.174;2023-08-20T13:28:35;9.40;;;8.70;;
4553;SDS011;2289;48.316;15.174;2023-08-20T13:31:05;9.20;;;8.40;;
4553;SDS011;2289;48.316;15.174;2023-08-20T13:33:36;12.40;;;9.67;;
4553;SDS011;2289;48.316;15.174;2023-08-20T13:36:06;9.77;;;8.97;;
4553;SDS011;2289;48.316;15.174;2023-08-20T13:38:35;8.57;;;7.87;;
4553;SDS011;2289;48.316;15.174;2023-08-20T13:41:05;10.20;;;9.20;;
4553;SDS011;2289;48.316;15.174;2023-08-20T13:43:37;8.20;;;7.60;;
4553;SDS011;2289;48.316;15.174;2023-08-20T13:46:06;10.00;;;8.70;;
4553;SDS011;2289;48.316;15.174;2023-08-20T13:48:37;10.23;;;9.33;;
4553;SDS011;2289;48.316;15.174;2023-08-20T13:51:07;9.87;;;8.87;;
4553;SDS011;2289;48.316;15.174;2023-08-20T13:53:36;8.97;;;8.33;;
4553;SDS011;2289;48.316;15.174;2023-08-20T13:56:05;14.10;;;8.20;;
4553;SDS011;2289;48.316;15.174;2023-08-20T13:58:34;9.67;;;8.90;;
4553;SDS011;2289;48.316;15.174;2023-08-20T14:01:03;9.53;;;8.60;;
4553;SDS011;2289;48.316;15.174;2023-08-20T14:03:33;10.10;;;9.27;;
4553;SDS011;2289;48.316;15.174;2023-08-20T14:06:03;9.17;;;8.37;;
4553;SDS011;2289;48.316;15.174;2023-08-20T14:08:32;9.50;;;8.50;;
4553;SDS011;2289;48.316;15.174;2023-08-20T14:11:01;9.20;;;8.40;;
4553;SDS011;2289;48.316;15.174;2023-08-20T14:13:31;9.70;;;8.70;;
4553;SDS011;2289;48.316;15.174;2023-08-20T14:16:00;9.77;;;8.87;;
4553;SDS011;2289;48.316;15.174;2023-08-20T14:18:30;16.80;;;9.53;;
4553;SDS011;2289;48.316;15.174;2023-08-20T14:20:58;8.43;;;7.73;;
4553;SDS011;2289;48.316;15.174;2023-08-20T14:30:42;9.33;;;8.60;;
4553;SDS011;2289;48.316;15.174;2023-08-20T14:33:12;9.30;;;8.60;;
4553;SDS011;2289;48.316;15.174;2023-08-20T14:35:40;10.43;;;9.53;;
4553;SDS011;2289;48.316;15.174;2023-08-20T14:38:10;10.07;;;9.07;;
4553;SDS011;2289;48.316;15.174;2023-08-20T14:43:46;9.40;;;8.60;;
4553;SDS011;2289;48.316;15.174;2023-08-20T14:46:17;10.07;;;8.50;;
4553;SDS011;2289;48.316;15.174;2023-08-20T15:20:05;9.33;;;8.53;;
4553;SDS011;2289;48.316;15.174;2023-08-20T15:22:38;9.57;;;8.57;;
4553;SDS011;2289;48.316;15.174;2023-08-20T15:25:08;10.40;;;8.70;;
4553;SDS011;2289;48.316;15.174;2023-08-20T15:27:38;8.70;;;7.90;;
4553;SDS011;2289;48.316;15.174;2023-08-20T15:30:08;9.40;;;8.60;;
4553;SDS011;2289;48.316;15.174;2023-08-20T15:32:37;11.60;;;10.50;;
4553;SDS011;2289;48.316;15.174;2023-08-20T15:35:08;10.20;;;9.30;;
4553;SDS011;2289;48.316;15.174;2023-08-20T15:37:37;10.60;;;9.60;;
4553;SDS011;2289;48.316;15.174;2023-08-20T15:40:07;10.00;;;9.00;;
4553;SDS011;2289;48.316;15.174;2023-08-20T15:42:39;10.20;;;9.37;;
4553;SDS011;2289;48.316;15.174;2023-08-20T15:45:11;10.83;;;9.83;;
4553;SDS011;2289;48.316;15.174;2023-08-20T15:47:41;9.80;;;9.00;;
4553;SDS011;2289;48.316;15.174;2023-08-20T15:50:12;10.23;;;9.37;;
4553;SDS011;2289;48.316;15.174;2023-08-20T15:52:41;10.27;;;9.37;;
4553;SDS011;2289;48.316;15.174;2023-08-20T15:55:10;9.83;;;9.03;;
4553;SDS011;2289;48.316;15.174;2023-08-20T15:57:42;10.33;;;9.40;;
4553;SDS011;2289;48.316;15.174;2023-08-20T16:00:11;10.30;;;9.40;;
4553;SDS011;2289;48.316;15.174;2023-08-20T16:02:43;9.50;;;8.53;;
4553;SDS011;2289;48.316;15.174;2023-08-20T16:05:14;8.77;;;7.97;;
4553;SDS011;2289;48.316;15.174;2023-08-20T16:07:44;12.50;;;8.17;;
4553;SDS011;2289;48.316;15.174;2023-08-20T16:10:15;10.00;;;8.97;;
4553;SDS011;2289;48.316;15.174;2023-08-20T16:12:45;8.97;;;8.17;;
4553;SDS011;2289;48.316;15.174;2023-08-20T16:15:13;9.33;;;7.93;;
4553;SDS011;2289;48.316;15.174;2023-08-20T16:17:43;9.23;;;8.40;;
4553;SDS011;2289;48.316;15.174;2023-08-20T16:20:13;9.40;;;8.60;;
4553;SDS011;2289;48.316;15.174;2023-08-20T16:22:42;9.50;;;8.43;;
4553;SDS011;2289;48.316;15.174;2023-08-20T16:25:15;9.17;;;8.37;;
4553;SDS011;2289;48.316;15.174;2023-08-20T16:27:44;11.77;;;8.33;;
4553;SDS011;2289;48.316;15.174;2023-08-20T16:30:14;11.80;;;8.93;;
4553;SDS011;2289;48.316;15.174;2023-08-20T16:32:44;10.13;;;8.77;;
4553;SDS011;2289;48.316;15.174;2023-08-20T16:35:16;11.93;;;10.07;;
4553;SDS011;2289;48.316;15.174;2023-08-20T16:37:48;9.70;;;8.90;;
4553;SDS011;2289;48.316;15.174;2023-08-20T16:40:20;9.90;;;8.87;;
4553;SDS011;2289;48.316;15.174;2023-08-20T16:42:49;16.63;;;9.53;;
4553;SDS011;2289;48.316;15.174;2023-08-20T16:45:18;14.10;;;11.00;;
4553;SDS011;2289;48.316;15.174;2023-08-20T16:47:47;11.53;;;10.30;;
4553;SDS011;2289;48.316;15.174;2023-08-20T16:50:18;10.93;;;10.03;;